Pagrindinis puslapis
METAR-TAF:

METAR-TAF

Oro uostai :

Vitorija, Espirito Santas, Brazilija

platuma: 20-16S, ilguma: 040-17W, Aukštis: 4 m

Dabartinis oras

Ataskaita buvo paskelbta 51 minutes, ne 21:00 UTC
Vėjas 11 kt iš Šiaurės Rytų
Temperatūra 25°C
Drėgmė 79%
Slėgis 1015 hPa
Matomumas 10 km arba daugiau
nėra debesų žemiau 1500 m ir nėra kamuolinių lietaus debesų

METAR: SBVT 212100Z 04011KT CAVOK 25/21 Q1015

Laikas: 18:51 (21:51 UTC)

Prognozė

Ataskaita buvo paskelbta 5 valandos ir 51 minutes, ne 16:00 UTC
Prognozė galioja nuo 21 metu 18 UTC su 22 metu 18 UTC
Vėjas 15 kt iš Šiaurės Rytų
Matomumas 10 km arba daugiau
nėra debesų žemiau 1500 m ir nėra kamuolinių lietaus debesų
Tapsmas
nuo 21 metu 22 UTC su 21 metu 24 UTC
Vėjas 10 kt iš Šiaurės
Tapsmas
nuo 22 metu 12 UTC su 22 metu 14 UTC
Vėjas 15 kt iš Šiaurės Rytų
Matomumas 10 km arba daugiau
Išsisklaidę debesys ne aukštis 3500 ft

TAF: SBVT 211600Z 2118/2218 05015KT CAVOK TN24/2205Z TX31/2216Z BECMG 2122/2124 36010KT BECMG 2212/2214 05015KT 9999 SCT035 RMK PEH

Orai ataskaitas ir orų prognozės (METAR, TAF).

turimą stotys yra geltonos ir raudonos taškus žemėlapyje.

Perkelti pele per norėdami pamatyti stoties vardą.

Tada spustelėkite, norėdami matyti oro stebėjimo ir prognozės.

Norėdami pakeisti žemėlapį: spustelėkite ant žalios mygtukų su juodo kryžiaus žemyn,; žalią mygtuką su brūkšneliu, jei norite nutolinti; arba žalių rodyklių gretimoms žemėlapius.


METAR-TAF: